sensor_id;sensor_type;location;lat;lon;timestamp;temperature;humidity
25438;DHT22;13364;49.084;9.978;2023-03-01T00:01:38;-2.40;93.40
25438;DHT22;13364;49.084;9.978;2023-03-01T00:04:05;-2.50;94.10
25438;DHT22;13364;49.084;9.978;2023-03-01T00:06:32;-2.70;94.80
25438;DHT22;13364;49.084;9.978;2023-03-01T00:08:59;-2.80;95.40
25438;DHT22;13364;49.084;9.978;2023-03-01T00:11:28;-2.80;96.00
25438;DHT22;13364;49.084;9.978;2023-03-01T00:13:58;-2.90;96.40
25438;DHT22;13364;49.084;9.978;2023-03-01T00:16:31;-2.90;96.80
25438;DHT22;13364;49.084;9.978;2023-03-01T00:19:00;-2.90;97.00
25438;DHT22;13364;49.084;9.978;2023-03-01T00:21:28;-2.90;97.10
25438;DHT22;13364;49.084;9.978;2023-03-01T00:23:55;-2.90;97.00
25438;DHT22;13364;49.084;9.978;2023-03-01T00:26:23;-2.80;97.00
25438;DHT22;13364;49.084;9.978;2023-03-01T00:28:51;-2.80;96.90
25438;DHT22;13364;49.084;9.978;2023-03-01T00:31:23;-2.80;96.80
25438;DHT22;13364;49.084;9.978;2023-03-01T00:33:55;-2.70;96.60
25438;DHT22;13364;49.084;9.978;2023-03-01T00:36:30;-2.60;96.40
25438;DHT22;13364;49.084;9.978;2023-03-01T00:38:59;-2.60;96.10
25438;DHT22;13364;49.084;9.978;2023-03-01T00:41:26;-2.60;96.10
25438;DHT22;13364;49.084;9.978;2023-03-01T00:43:54;-2.70;96.40
25438;DHT22;13364;49.084;9.978;2023-03-01T00:46:26;-2.80;96.80
25438;DHT22;13364;49.084;9.978;2023-03-01T00:48:54;-2.90;97.10
25438;DHT22;13364;49.084;9.978;2023-03-01T00:51:23;-2.90;97.40
25438;DHT22;13364;49.084;9.978;2023-03-01T00:53:52;-3.00;97.60
25438;DHT22;13364;49.084;9.978;2023-03-01T00:56:20;-3.00;98.00
25438;DHT22;13364;49.084;9.978;2023-03-01T00:58:48;-3.10;98.30
25438;DHT22;13364;49.084;9.978;2023-03-01T01:01:18;-3.10;98.30
25438;DHT22;13364;49.084;9.978;2023-03-01T01:03:51;-3.10;98.50
25438;DHT22;13364;49.084;9.978;2023-03-01T01:06:21;-3.20;98.80
25438;DHT22;13364;49.084;9.978;2023-03-01T01:08:49;-3.20;99.20
25438;DHT22;13364;49.084;9.978;2023-03-01T01:11:17;-3.20;99.40
25438;DHT22;13364;49.084;9.978;2023-03-01T01:13:46;-3.20;99.30
25438;DHT22;13364;49.084;9.978;2023-03-01T01:16:14;-3.10;99.30
25438;DHT22;13364;49.084;9.978;2023-03-01T01:18:42;-3.10;99.30
25438;DHT22;13364;49.084;9.978;2023-03-01T01:21:11;-3.10;99.50
25438;DHT22;13364;49.084;9.978;2023-03-01T01:23:40;-3.10;99.50
25438;DHT22;13364;49.084;9.978;2023-03-01T01:26:10;-3.10;99.60
25438;DHT22;13364;49.084;9.978;2023-03-01T01:28:37;-3.10;99.60
25438;DHT22;13364;49.084;9.978;2023-03-01T01:31:05;-3.00;99.50
25438;DHT22;13364;49.084;9.978;2023-03-01T01:33:33;-3.00;99.40
25438;DHT22;13364;49.084;9.978;2023-03-01T01:36:00;-3.00;99.30
25438;DHT22;13364;49.084;9.978;2023-03-01T01:38:27;-3.00;99.30
25438;DHT22;13364;49.084;9.978;2023-03-01T01:40:54;-2.90;99.30
25438;DHT22;13364;49.084;9.978;2023-03-01T01:43:28;-2.90;99.20
25438;DHT22;13364;49.084;9.978;2023-03-01T01:45:59;-2.90;99.30
25438;DHT22;13364;49.084;9.978;2023-03-01T01:48:35;-2.90;99.30
25438;DHT22;13364;49.084;9.978;2023-03-01T01:51:18;-2.80;99.20
25438;DHT22;13364;49.084;9.978;2023-03-01T01:53:49;-2.80;99.00
25438;DHT22;13364;49.084;9.978;2023-03-01T01:56:18;-2.70;98.80
25438;DHT22;13364;49.084;9.978;2023-03-01T01:58:47;-2.60;98.40
25438;DHT22;13364;49.084;9.978;2023-03-01T02:01:14;-2.60;98.10
25438;DHT22;13364;49.084;9.978;2023-03-01T02:03:43;-2.60;98.00
25438;DHT22;13364;49.084;9.978;2023-03-01T02:06:31;-2.50;98.00
25438;DHT22;13364;49.084;9.978;2023-03-01T02:09:03;-2.50;97.90
25438;DHT22;13364;49.084;9.978;2023-03-01T02:11:32;-2.50;97.80
25438;DHT22;13364;49.084;9.978;2023-03-01T02:14:00;-2.40;97.50
25438;DHT22;13364;49.084;9.978;2023-03-01T02:16:27;-2.40;97.40
25438;DHT22;13364;49.084;9.978;2023-03-01T02:18:57;-2.30;97.20
25438;DHT22;13364;49.084;9.978;2023-03-01T02:24:35;-2.20;96.80
25438;DHT22;13364;49.084;9.978;2023-03-01T02:27:05;-2.20;96.60
25438;DHT22;13364;49.084;9.978;2023-03-01T02:29:33;-2.30;96.60
25438;DHT22;13364;49.084;9.978;2023-03-01T02:32:02;-2.40;97.00
25438;DHT22;13364;49.084;9.978;2023-03-01T02:34:31;-2.50;97.20
25438;DHT22;13364;49.084;9.978;2023-03-01T02:37:06;-2.60;97.50
25438;DHT22;13364;49.084;9.978;2023-03-01T02:39:44;-2.70;97.90
25438;DHT22;13364;49.084;9.978;2023-03-01T02:42:17;-2.80;98.20
25438;DHT22;13364;49.084;9.978;2023-03-01T02:44:49;-2.80;98.50
25438;DHT22;13364;49.084;9.978;2023-03-01T02:47:16;-2.90;98.70
25438;DHT22;13364;49.084;9.978;2023-03-01T02:49:43;-2.90;98.70
25438;DHT22;13364;49.084;9.978;2023-03-01T02:57:22;-2.80;98.70
25438;DHT22;13364;49.084;9.978;2023-03-01T02:59:50;-2.70;98.40
25438;DHT22;13364;49.084;9.978;2023-03-01T03:02:20;-2.70;98.40
25438;DHT22;13364;49.084;9.978;2023-03-01T03:04:48;-2.60;98.30
25438;DHT22;13364;49.084;9.978;2023-03-01T03:07:47;-2.60;98.30
25438;DHT22;13364;49.084;9.978;2023-03-01T03:10:27;-2.70;98.60
25438;DHT22;13364;49.084;9.978;2023-03-01T03:13:03;-2.70;99.00
25438;DHT22;13364;49.084;9.978;2023-03-01T03:15:30;-2.70;99.10
25438;DHT22;13364;49.084;9.978;2023-03-01T03:17:58;-2.70;99.30
25438;DHT22;13364;49.084;9.978;2023-03-01T03:20:27;-2.80;99.40
25438;DHT22;13364;49.084;9.978;2023-03-01T03:22:56;-2.70;99.70
25438;DHT22;13364;49.084;9.978;2023-03-01T03:25:26;-2.70;99.50
25438;DHT22;13364;49.084;9.978;2023-03-01T03:27:54;-2.60;99.10
25438;DHT22;13364;49.084;9.978;2023-03-01T03:30:28;-2.60;98.90
25438;DHT22;13364;49.084;9.978;2023-03-01T03:32:56;-2.40;98.70
25438;DHT22;13364;49.084;9.978;2023-03-01T03:35:29;-2.30;98.30
25438;DHT22;13364;49.084;9.978;2023-03-01T03:37:59;-2.20;97.80
25438;DHT22;13364;49.084;9.978;2023-03-01T03:42:57;-2.20;97.10
25438;DHT22;13364;49.084;9.978;2023-03-01T03:45:25;-2.10;97.20
25438;DHT22;13364;49.084;9.978;2023-03-01T03:47:52;-2.20;97.10
25438;DHT22;13364;49.084;9.978;2023-03-01T03:50:19;-2.10;97.10
25438;DHT22;13364;49.084;9.978;2023-03-01T03:52:46;-2.10;97.20
25438;DHT22;13364;49.084;9.978;2023-03-01T03:55:14;-2.20;97.10
25438;DHT22;13364;49.084;9.978;2023-03-01T03:57:41;-2.20;97.30
25438;DHT22;13364;49.084;9.978;2023-03-01T04:00:12;-2.10;97.30
25438;DHT22;13364;49.084;9.978;2023-03-01T04:02:42;-2.10;97.30
25438;DHT22;13364;49.084;9.978;2023-03-01T04:05:11;-2.10;97.20
25438;DHT22;13364;49.084;9.978;2023-03-01T04:07:39;-2.00;97.00
25438;DHT22;13364;49.084;9.978;2023-03-01T04:10:10;-2.00;97.10
25438;DHT22;13364;49.084;9.978;2023-03-01T04:12:37;-2.00;96.70
25438;DHT22;13364;49.084;9.978;2023-03-01T04:15:06;-2.00;96.50
25438;DHT22;13364;49.084;9.978;2023-03-01T04:17:44;-2.00;96.60
25438;DHT22;13364;49.084;9.978;2023-03-01T04:20:13;-2.00;96.70
25438;DHT22;13364;49.084;9.978;2023-03-01T04:22:40;-2.00;96.80
25438;DHT22;13364;49.084;9.978;2023-03-01T04:25:08;-2.10;97.10
25438;DHT22;13364;49.084;9.978;2023-03-01T04:27:35;-2.20;97.30
25438;DHT22;13364;49.084;9.978;2023-03-01T04:30:03;-2.20;97.50
25438;DHT22;13364;49.084;9.978;2023-03-01T04:32:30;-2.30;97.70
25438;DHT22;13364;49.084;9.978;2023-03-01T04:34:58;-2.30;97.90
25438;DHT22;13364;49.084;9.978;2023-03-01T04:37:26;-2.40;98.10
25438;DHT22;13364;49.084;9.978;2023-03-01T04:39:53;-2.40;98.10
25438;DHT22;13364;49.084;9.978;2023-03-01T04:42:20;-2.50;98.30
25438;DHT22;13364;49.084;9.978;2023-03-01T04:44:47;-2.50;98.40
25438;DHT22;13364;49.084;9.978;2023-03-01T04:47:14;-2.60;98.60
25438;DHT22;13364;49.084;9.978;2023-03-01T04:49:41;-2.60;98.90
25438;DHT22;13364;49.084;9.978;2023-03-01T04:52:08;-2.60;99.20
25438;DHT22;13364;49.084;9.978;2023-03-01T04:54:36;-2.70;99.30
25438;DHT22;13364;49.084;9.978;2023-03-01T04:57:03;-2.70;99.50
25438;DHT22;13364;49.084;9.978;2023-03-01T04:59:30;-2.80;99.70
25438;DHT22;13364;49.084;9.978;2023-03-01T05:01:57;-2.80;99.90
25438;DHT22;13364;49.084;9.978;2023-03-01T05:04:24;-2.90;100.00
25438;DHT22;13364;49.084;9.978;2023-03-01T05:06:51;-2.90;100.00
25438;DHT22;13364;49.084;9.978;2023-03-01T05:09:20;-2.90;100.00
25438;DHT22;13364;49.084;9.978;2023-03-01T05:11:47;-3.00;100.00
25438;DHT22;13364;49.084;9.978;2023-03-01T05:14:14;-3.00;100.00
25438;DHT22;13364;49.084;9.978;2023-03-01T05:16:41;-3.00;100.00
25438;DHT22;13364;49.084;9.978;2023-03-01T05:19:08;-3.00;100.00
25438;DHT22;13364;49.084;9.978;2023-03-01T05:21:43;-3.10;100.00
25438;DHT22;13364;49.084;9.978;2023-03-01T05:24:30;-3.10;99.90
25438;DHT22;13364;49.084;9.978;2023-03-01T05:26:58;-3.20;100.00
25438;DHT22;13364;49.084;9.978;2023-03-01T05:29:26;-3.20;100.00
25438;DHT22;13364;49.084;9.978;2023-03-01T05:32:01;-3.30;100.00
25438;DHT22;13364;49.084;9.978;2023-03-01T05:34:32;-3.30;100.00
25438;DHT22;13364;49.084;9.978;2023-03-01T05:36:59;-3.30;100.00
25438;DHT22;13364;49.084;9.978;2023-03-01T05:39:28;-3.40;100.00
25438;DHT22;13364;49.084;9.978;2023-03-01T05:41:57;-3.50;100.00
25438;DHT22;13364;49.084;9.978;2023-03-01T05:48:04;-3.50;100.00
25438;DHT22;13364;49.084;9.978;2023-03-01T05:50:37;-3.50;100.00
25438;DHT22;13364;49.084;9.978;2023-03-01T05:55:36;-3.50;100.00
25438;DHT22;13364;49.084;9.978;2023-03-01T05:58:06;-3.50;100.00
25438;DHT22;13364;49.084;9.978;2023-03-01T06:00:34;-3.50;100.00
25438;DHT22;13364;49.084;9.978;2023-03-01T06:03:01;-3.40;100.00
25438;DHT22;13364;49.084;9.978;2023-03-01T06:05:29;-3.50;100.00
25438;DHT22;13364;49.084;9.978;2023-03-01T06:07:59;-3.50;100.00
25438;DHT22;13364;49.084;9.978;2023-03-01T06:10:27;-3.50;100.00
25438;DHT22;13364;49.084;9.978;2023-03-01T06:12:54;-3.50;100.00
25438;DHT22;13364;49.084;9.978;2023-03-01T06:15:22;-3.50;100.00
25438;DHT22;13364;49.084;9.978;2023-03-01T06:21:13;-3.50;100.00
25438;DHT22;13364;49.084;9.978;2023-03-01T06:23:40;-3.50;100.00
25438;DHT22;13364;49.084;9.978;2023-03-01T06:26:08;-3.40;100.00
25438;DHT22;13364;49.084;9.978;2023-03-01T06:28:35;-3.40;99.90
25438;DHT22;13364;49.084;9.978;2023-03-01T06:31:03;-3.40;99.70
25438;DHT22;13364;49.084;9.978;2023-03-01T06:33:30;-3.30;99.70
25438;DHT22;13364;49.084;9.978;2023-03-01T06:39:32;-3.30;99.50
25438;DHT22;13364;49.084;9.978;2023-03-01T06:41:59;-3.20;99.40
25438;DHT22;13364;49.084;9.978;2023-03-01T06:44:33;-3.10;99.10
25438;DHT22;13364;49.084;9.978;2023-03-01T06:47:00;-3.00;98.80
25438;DHT22;13364;49.084;9.978;2023-03-01T06:49:27;-2.90;98.50
25438;DHT22;13364;49.084;9.978;2023-03-01T06:51:54;-3.00;98.20
25438;DHT22;13364;49.084;9.978;2023-03-01T06:54:22;-3.00;98.20
25438;DHT22;13364;49.084;9.978;2023-03-01T06:56:49;-3.10;98.70
25438;DHT22;13364;49.084;9.978;2023-03-01T06:59:17;-3.20;99.00
25438;DHT22;13364;49.084;9.978;2023-03-01T07:01:44;-3.20;99.40
25438;DHT22;13364;49.084;9.978;2023-03-01T07:04:12;-3.20;99.70
25438;DHT22;13364;49.084;9.978;2023-03-01T07:06:40;-3.30;99.70
25438;DHT22;13364;49.084;9.978;2023-03-01T07:09:07;-3.30;99.80
25438;DHT22;13364;49.084;9.978;2023-03-01T07:11:34;-3.30;99.90
25438;DHT22;13364;49.084;9.978;2023-03-01T07:14:01;-3.30;99.90
25438;DHT22;13364;49.084;9.978;2023-03-01T07:16:28;-3.20;99.90
25438;DHT22;13364;49.084;9.978;2023-03-01T07:18:55;-3.10;99.60
25438;DHT22;13364;49.084;9.978;2023-03-01T07:21:25;-3.00;99.60
25438;DHT22;13364;49.084;9.978;2023-03-01T07:23:52;-2.90;99.40
25438;DHT22;13364;49.084;9.978;2023-03-01T07:26:19;-2.80;99.00
25438;DHT22;13364;49.084;9.978;2023-03-01T07:28:46;-2.80;98.60
25438;DHT22;13364;49.084;9.978;2023-03-01T07:31:13;-2.70;98.30
25438;DHT22;13364;49.084;9.978;2023-03-01T07:33:40;-2.60;98.10
25438;DHT22;13364;49.084;9.978;2023-03-01T07:36:08;-2.50;97.80
25438;DHT22;13364;49.084;9.978;2023-03-01T07:38:35;-2.30;97.20
25438;DHT22;13364;49.084;9.978;2023-03-01T07:41:03;-2.20;96.80
25438;DHT22;13364;49.084;9.978;2023-03-01T07:43:30;-2.10;96.10
25438;DHT22;13364;49.084;9.978;2023-03-01T07:45:59;-2.10;96.10
25438;DHT22;13364;49.084;9.978;2023-03-01T07:48:28;-2.20;96.40
25438;DHT22;13364;49.084;9.978;2023-03-01T07:50:58;-2.00;96.50
25438;DHT22;13364;49.084;9.978;2023-03-01T07:53:26;-1.90;96.10
25438;DHT22;13364;49.084;9.978;2023-03-01T07:58:37;-1.80;95.20
25438;DHT22;13364;49.084;9.978;2023-03-01T08:01:06;-1.70;94.80
25438;DHT22;13364;49.084;9.978;2023-03-01T08:03:34;-1.60;94.30
25438;DHT22;13364;49.084;9.978;2023-03-01T08:06:02;-1.60;94.30
25438;DHT22;13364;49.084;9.978;2023-03-01T08:08:30;-1.50;93.80
25438;DHT22;13364;49.084;9.978;2023-03-01T08:10:58;-1.50;93.80
25438;DHT22;13364;49.084;9.978;2023-03-01T08:13:26;-1.40;93.70
25438;DHT22;13364;49.084;9.978;2023-03-01T08:15:53;-1.30;93.70
25438;DHT22;13364;49.084;9.978;2023-03-01T08:18:21;-1.20;92.90
25438;DHT22;13364;49.084;9.978;2023-03-01T08:20:48;-1.10;92.70
25438;DHT22;13364;49.084;9.978;2023-03-01T08:23:15;-1.00;92.30
25438;DHT22;13364;49.084;9.978;2023-03-01T08:25:42;-1.00;92.00
25438;DHT22;13364;49.084;9.978;2023-03-01T08:28:09;-0.90;91.60
25438;DHT22;13364;49.084;9.978;2023-03-01T08:30:36;-0.70;91.60
25438;DHT22;13364;49.084;9.978;2023-03-01T08:33:03;-0.60;91.00
25438;DHT22;13364;49.084;9.978;2023-03-01T08:35:30;-0.40;90.60
25438;DHT22;13364;49.084;9.978;2023-03-01T08:37:57;-0.30;89.90
25438;DHT22;13364;49.084;9.978;2023-03-01T08:40:24;-0.10;89.50
25438;DHT22;13364;49.084;9.978;2023-03-01T08:42:51;0.00;89.10
25438;DHT22;13364;49.084;9.978;2023-03-01T08:45:18;0.10;88.00
25438;DHT22;13364;49.084;9.978;2023-03-01T08:47:45;0.30;87.10
25438;DHT22;13364;49.084;9.978;2023-03-01T08:50:12;0.40;87.00
25438;DHT22;13364;49.084;9.978;2023-03-01T08:52:39;0.50;87.10
25438;DHT22;13364;49.084;9.978;2023-03-01T08:55:07;0.60;86.60
25438;DHT22;13364;49.084;9.978;2023-03-01T08:57:34;0.80;85.90
25438;DHT22;13364;49.084;9.978;2023-03-01T09:00:02;0.90;84.20
25438;DHT22;13364;49.084;9.978;2023-03-01T09:02:30;0.80;84.20
25438;DHT22;13364;49.084;9.978;2023-03-01T09:04:57;0.80;85.10
25438;DHT22;13364;49.084;9.978;2023-03-01T09:07:24;1.10;84.70
25438;DHT22;13364;49.084;9.978;2023-03-01T09:09:54;1.30;84.40
25438;DHT22;13364;49.084;9.978;2023-03-01T09:12:22;1.40;83.10
25438;DHT22;13364;49.084;9.978;2023-03-01T09:14:49;1.50;83.20
25438;DHT22;13364;49.084;9.978;2023-03-01T09:17:16;1.50;82.20
25438;DHT22;13364;49.084;9.978;2023-03-01T09:19:43;1.70;82.30
25438;DHT22;13364;49.084;9.978;2023-03-01T09:22:10;1.80;82.30
25438;DHT22;13364;49.084;9.978;2023-03-01T09:24:37;2.10;81.40
25438;DHT22;13364;49.084;9.978;2023-03-01T09:27:04;2.30;81.30
25438;DHT22;13364;49.084;9.978;2023-03-01T09:29:36;2.60;79.80
25438;DHT22;13364;49.084;9.978;2023-03-01T09:32:03;2.80;78.90
25438;DHT22;13364;49.084;9.978;2023-03-01T09:34:31;3.10;77.80
25438;DHT22;13364;49.084;9.978;2023-03-01T09:36:58;3.20;76.30
25438;DHT22;13364;49.084;9.978;2023-03-01T09:39:25;3.10;76.60
25438;DHT22;13364;49.084;9.978;2023-03-01T09:42:03;3.20;77.10
25438;DHT22;13364;49.084;9.978;2023-03-01T09:44:42;3.40;76.00
25438;DHT22;13364;49.084;9.978;2023-03-01T09:47:22;3.60;75.20
25438;DHT22;13364;49.084;9.978;2023-03-01T09:50:17;3.70;75.20
25438;DHT22;13364;49.084;9.978;2023-03-01T09:52:50;3.90;73.50
25438;DHT22;13364;49.084;9.978;2023-03-01T09:55:31;3.80;72.80
25438;DHT22;13364;49.084;9.978;2023-03-01T10:09:29;4.10;72.90
25438;DHT22;13364;49.084;9.978;2023-03-01T10:12:02;4.20;72.00
25438;DHT22;13364;49.084;9.978;2023-03-01T10:14:55;4.20;71.90
25438;DHT22;13364;49.084;9.978;2023-03-01T10:17:37;4.00;71.50
25438;DHT22;13364;49.084;9.978;2023-03-01T10:20:23;4.10;73.20
25438;DHT22;13364;49.084;9.978;2023-03-01T10:22:51;4.40;72.20
25438;DHT22;13364;49.084;9.978;2023-03-01T10:28:02;4.80;70.30
25438;DHT22;13364;49.084;9.978;2023-03-01T10:30:38;4.90;69.30
25438;DHT22;13364;49.084;9.978;2023-03-01T10:33:17;5.00;70.10
25438;DHT22;13364;49.084;9.978;2023-03-01T10:35:45;5.20;67.70
25438;DHT22;13364;49.084;9.978;2023-03-01T10:38:15;5.10;67.50
25438;DHT22;13364;49.084;9.978;2023-03-01T10:41:05;4.80;68.10
25438;DHT22;13364;49.084;9.978;2023-03-01T10:43:48;4.80;68.80
25438;DHT22;13364;49.084;9.978;2023-03-01T10:46:32;4.80;67.90
25438;DHT22;13364;49.084;9.978;2023-03-01T10:51:43;4.60;68.80
25438;DHT22;13364;49.084;9.978;2023-03-01T10:54:28;4.60;69.60
25438;DHT22;13364;49.084;9.978;2023-03-01T10:57:04;4.70;70.90
25438;DHT22;13364;49.084;9.978;2023-03-01T11:08:08;5.20;68.00
25438;DHT22;13364;49.084;9.978;2023-03-01T11:10:37;5.40;68.10
25438;DHT22;13364;49.084;9.978;2023-03-01T11:13:13;5.70;67.60
25438;DHT22;13364;49.084;9.978;2023-03-01T11:15:42;6.00;67.10
25438;DHT22;13364;49.084;9.978;2023-03-01T11:18:21;6.20;64.90
25438;DHT22;13364;49.084;9.978;2023-03-01T11:20:58;6.30;63.90
25438;DHT22;13364;49.084;9.978;2023-03-01T11:23:28;6.30;64.10
25438;DHT22;13364;49.084;9.978;2023-03-01T11:26:01;6.30;65.80
25438;DHT22;13364;49.084;9.978;2023-03-01T11:28:29;6.50;64.60
25438;DHT22;13364;49.084;9.978;2023-03-01T11:31:10;6.60;64.50
25438;DHT22;13364;49.084;9.978;2023-03-01T11:36:58;6.60;62.60
25438;DHT22;13364;49.084;9.978;2023-03-01T11:42:05;6.50;63.80
25438;DHT22;13364;49.084;9.978;2023-03-01T11:44:48;6.40;62.90
25438;DHT22;13364;49.084;9.978;2023-03-01T11:47:49;6.10;63.30
25438;DHT22;13364;49.084;9.978;2023-03-01T11:53:13;6.10;65.70
25438;DHT22;13364;49.084;9.978;2023-03-01T11:55:57;6.40;65.80
25438;DHT22;13364;49.084;9.978;2023-03-01T12:01:32;7.10;62.80
25438;DHT22;13364;49.084;9.978;2023-03-01T12:07:00;7.20;62.30
25438;DHT22;13364;49.084;9.978;2023-03-01T12:20:36;6.50;63.70
25438;DHT22;13364;49.084;9.978;2023-03-01T12:39:31;6.40;65.50
25438;DHT22;13364;49.084;9.978;2023-03-01T12:51:01;7.00;62.80
25438;DHT22;13364;49.084;9.978;2023-03-01T12:53:34;7.10;62.70
25438;DHT22;13364;49.084;9.978;2023-03-01T12:56:08;7.20;62.20
25438;DHT22;13364;49.084;9.978;2023-03-01T13:06:42;6.70;62.80
25438;DHT22;13364;49.084;9.978;2023-03-01T13:11:42;6.30;63.70
25438;DHT22;13364;49.084;9.978;2023-03-01T13:16:52;5.80;65.30
25438;DHT22;13364;49.084;9.978;2023-03-01T13:19:23;5.80;65.80
25438;DHT22;13364;49.084;9.978;2023-03-01T13:21:53;6.00;66.10
25438;DHT22;13364;49.084;9.978;2023-03-01T13:24:43;6.20;64.90
25438;DHT22;13364;49.084;9.978;2023-03-01T13:27:22;6.40;65.10
25438;DHT22;13364;49.084;9.978;2023-03-01T13:30:00;6.50;64.00
25438;DHT22;13364;49.084;9.978;2023-03-01T13:32:32;6.50;64.00
25438;DHT22;13364;49.084;9.978;2023-03-01T13:37:47;6.40;64.10
25438;DHT22;13364;49.084;9.978;2023-03-01T13:42:55;6.30;64.60
25438;DHT22;13364;49.084;9.978;2023-03-01T13:45:42;6.30;63.30
25438;DHT22;13364;49.084;9.978;2023-03-01T13:48:22;6.20;64.40
25438;DHT22;13364;49.084;9.978;2023-03-01T13:50:58;6.20;65.40
25438;DHT22;13364;49.084;9.978;2023-03-01T13:53:29;6.50;64.30
25438;DHT22;13364;49.084;9.978;2023-03-01T13:56:03;6.70;63.50
25438;DHT22;13364;49.084;9.978;2023-03-01T13:58:48;6.70;63.20
25438;DHT22;13364;49.084;9.978;2023-03-01T14:01:43;6.70;62.70
25438;DHT22;13364;49.084;9.978;2023-03-01T14:07:07;6.80;62.10
25438;DHT22;13364;49.084;9.978;2023-03-01T14:09:41;6.80;62.20
25438;DHT22;13364;49.084;9.978;2023-03-01T14:17:26;6.80;62.10
25438;DHT22;13364;49.084;9.978;2023-03-01T14:19:57;6.90;62.40
25438;DHT22;13364;49.084;9.978;2023-03-01T14:22:32;6.80;61.30
25438;DHT22;13364;49.084;9.978;2023-03-01T14:27:42;7.00;61.60
25438;DHT22;13364;49.084;9.978;2023-03-01T14:30:14;7.00;61.70
25438;DHT22;13364;49.084;9.978;2023-03-01T14:32:42;7.00;61.90
25438;DHT22;13364;49.084;9.978;2023-03-01T14:35:27;7.00;61.80
25438;DHT22;13364;49.084;9.978;2023-03-01T14:37:55;7.10;60.80
25438;DHT22;13364;49.084;9.978;2023-03-01T14:40:31;7.10;61.20
25438;DHT22;13364;49.084;9.978;2023-03-01T14:43:01;7.10;60.70
25438;DHT22;13364;49.084;9.978;2023-03-01T14:45:29;7.10;61.40
25438;DHT22;13364;49.084;9.978;2023-03-01T14:48:02;7.10;60.50
25438;DHT22;13364;49.084;9.978;2023-03-01T14:50:32;6.80;61.20
25438;DHT22;13364;49.084;9.978;2023-03-01T14:53:05;6.70;61.70
25438;DHT22;13364;49.084;9.978;2023-03-01T14:55:35;6.60;62.20
25438;DHT22;13364;49.084;9.978;2023-03-01T14:58:12;6.40;62.70
25438;DHT22;13364;49.084;9.978;2023-03-01T15:00:50;6.40;64.00
25438;DHT22;13364;49.084;9.978;2023-03-01T15:03:24;6.40;63.20
25438;DHT22;13364;49.084;9.978;2023-03-01T15:05:52;6.40;62.70
25438;DHT22;13364;49.084;9.978;2023-03-01T15:08:23;6.30;63.20
25438;DHT22;13364;49.084;9.978;2023-03-01T15:13:33;6.20;63.90
25438;DHT22;13364;49.084;9.978;2023-03-01T15:16:33;6.30;63.50
25438;DHT22;13364;49.084;9.978;2023-03-01T15:19:03;6.20;63.50
25438;DHT22;13364;49.084;9.978;2023-03-01T15:21:36;6.30;63.50
25438;DHT22;13364;49.084;9.978;2023-03-01T15:29:27;6.60;62.80
25438;DHT22;13364;49.084;9.978;2023-03-01T15:32:06;6.70;62.50
25438;DHT22;13364;49.084;9.978;2023-03-01T15:34:48;6.60;62.40
25438;DHT22;13364;49.084;9.978;2023-03-01T15:37:44;6.50;62.50
25438;DHT22;13364;49.084;9.978;2023-03-01T15:40:32;6.40;63.10
25438;DHT22;13364;49.084;9.978;2023-03-01T15:43:00;6.20;63.30
25438;DHT22;13364;49.084;9.978;2023-03-01T15:45:30;6.00;64.20
25438;DHT22;13364;49.084;9.978;2023-03-01T15:48:17;6.00;64.60
25438;DHT22;13364;49.084;9.978;2023-03-01T15:50:54;5.90;64.40
25438;DHT22;13364;49.084;9.978;2023-03-01T15:53:22;5.80;64.70
25438;DHT22;13364;49.084;9.978;2023-03-01T15:55:49;5.70;65.00
25438;DHT22;13364;49.084;9.978;2023-03-01T15:58:22;5.60;66.20
25438;DHT22;13364;49.084;9.978;2023-03-01T16:00:50;5.50;66.40
25438;DHT22;13364;49.084;9.978;2023-03-01T16:03:30;5.40;66.70
25438;DHT22;13364;49.084;9.978;2023-03-01T16:05:57;5.40;66.80
25438;DHT22;13364;49.084;9.978;2023-03-01T16:08:24;5.30;67.30
25438;DHT22;13364;49.084;9.978;2023-03-01T16:10:51;5.30;67.30
25438;DHT22;13364;49.084;9.978;2023-03-01T16:13:18;5.30;67.10
25438;DHT22;13364;49.084;9.978;2023-03-01T16:15:46;5.30;67.30
25438;DHT22;13364;49.084;9.978;2023-03-01T16:18:13;5.20;67.80
25438;DHT22;13364;49.084;9.978;2023-03-01T16:20:40;5.20;67.50
25438;DHT22;13364;49.084;9.978;2023-03-01T16:23:10;5.10;68.30
25438;DHT22;13364;49.084;9.978;2023-03-01T16:25:38;5.00;68.30
25438;DHT22;13364;49.084;9.978;2023-03-01T16:28:06;4.90;69.00
25438;DHT22;13364;49.084;9.978;2023-03-01T16:30:37;4.80;69.00
25438;DHT22;13364;49.084;9.978;2023-03-01T16:33:06;4.70;69.20
25438;DHT22;13364;49.084;9.978;2023-03-01T16:35:55;4.70;69.20
25438;DHT22;13364;49.084;9.978;2023-03-01T16:38:22;4.70;69.80
25438;DHT22;13364;49.084;9.978;2023-03-01T16:40:50;4.60;70.30
25438;DHT22;13364;49.084;9.978;2023-03-01T16:43:18;4.50;70.50
25438;DHT22;13364;49.084;9.978;2023-03-01T16:45:45;4.50;70.80
25438;DHT22;13364;49.084;9.978;2023-03-01T16:48:13;4.40;71.00
25438;DHT22;13364;49.084;9.978;2023-03-01T16:50:40;4.30;71.40
25438;DHT22;13364;49.084;9.978;2023-03-01T16:53:08;4.30;71.80
25438;DHT22;13364;49.084;9.978;2023-03-01T16:55:35;4.20;72.00
25438;DHT22;13364;49.084;9.978;2023-03-01T16:58:02;4.10;72.70
25438;DHT22;13364;49.084;9.978;2023-03-01T17:00:29;4.00;73.10
25438;DHT22;13364;49.084;9.978;2023-03-01T17:02:56;4.00;73.50
25438;DHT22;13364;49.084;9.978;2023-03-01T17:05:23;3.90;73.70
25438;DHT22;13364;49.084;9.978;2023-03-01T17:07:51;3.90;74.10
25438;DHT22;13364;49.084;9.978;2023-03-01T17:10:21;3.80;74.50
25438;DHT22;13364;49.084;9.978;2023-03-01T17:12:49;3.70;74.80
25438;DHT22;13364;49.084;9.978;2023-03-01T17:15:16;3.70;75.20
25438;DHT22;13364;49.084;9.978;2023-03-01T17:17:44;3.60;75.30
25438;DHT22;13364;49.084;9.978;2023-03-01T17:20:11;3.60;75.60
25438;DHT22;13364;49.084;9.978;2023-03-01T17:22:38;3.60;75.60
25438;DHT22;13364;49.084;9.978;2023-03-01T17:25:08;3.60;75.60
25438;DHT22;13364;49.084;9.978;2023-03-01T17:27:39;3.60;75.70
25438;DHT22;13364;49.084;9.978;2023-03-01T17:30:08;3.60;75.80
25438;DHT22;13364;49.084;9.978;2023-03-01T17:32:36;3.50;75.60
25438;DHT22;13364;49.084;9.978;2023-03-01T17:35:03;3.50;76.00
25438;DHT22;13364;49.084;9.978;2023-03-01T17:37:30;3.50;76.00
25438;DHT22;13364;49.084;9.978;2023-03-01T17:39:57;3.50;76.10
25438;DHT22;13364;49.084;9.978;2023-03-01T17:42:24;3.50;76.20
25438;DHT22;13364;49.084;9.978;2023-03-01T17:44:51;3.50;76.30
25438;DHT22;13364;49.084;9.978;2023-03-01T17:47:18;3.50;76.50
25438;DHT22;13364;49.084;9.978;2023-03-01T17:49:45;3.50;76.50
25438;DHT22;13364;49.084;9.978;2023-03-01T17:52:12;3.50;76.40
25438;DHT22;13364;49.084;9.978;2023-03-01T17:54:39;3.50;76.40
25438;DHT22;13364;49.084;9.978;2023-03-01T17:57:06;3.60;76.20
25438;DHT22;13364;49.084;9.978;2023-03-01T17:59:37;3.50;76.20
25438;DHT22;13364;49.084;9.978;2023-03-01T18:02:04;3.50;76.50
25438;DHT22;13364;49.084;9.978;2023-03-01T18:04:31;3.40;76.90
25438;DHT22;13364;49.084;9.978;2023-03-01T18:06:58;3.30;77.30
25438;DHT22;13364;49.084;9.978;2023-03-01T18:09:28;3.30;77.60
25438;DHT22;13364;49.084;9.978;2023-03-01T18:11:56;3.20;77.70
25438;DHT22;13364;49.084;9.978;2023-03-01T18:14:23;3.20;78.00
25438;DHT22;13364;49.084;9.978;2023-03-01T18:16:59;3.10;78.50
25438;DHT22;13364;49.084;9.978;2023-03-01T18:19:29;2.90;78.90